Time;durP1;ratioP1;P1;durP2;ratioP2;P2;SDS_P1;SDS_P2;PMS_P1;PMS_P2;Temp;Humidity;BMP_temperature;BMP_pressure;BME280_temperature;BME280_humidity;BME280_pressure;Samples;Min_cycle;Max_cycle;Signal;HPM_P1;HPM_P2
2022/09/17 00:01:47;;;;;;;7.53;1.00;;;12.50;93.90;;;;;;5043829;28;20047;-57
2022/09/17 00:04:26;;;;;;;6.03;1.15;;;12.50;94.00;;;;;;5040871;28;20031;-58
2022/09/17 00:06:52;;;;;;;9.50;1.70;;;12.50;94.10;;;;;;5040353;28;20467;-58
2022/09/17 00:09:17;;;;;;;7.88;0.85;;;12.50;94.10;;;;;;5047099;28;20017;-58
2022/09/17 00:11:43;;;;;;;11.50;1.52;;;12.40;94.20;;;;;;5039007;28;20468;-56
2022/09/17 00:14:14;;;;;;;5.25;0.90;;;12.40;94.20;;;;;;5041963;28;20493;-58
2022/09/17 00:16:43;;;;;;;6.68;1.27;;;12.40;94.20;;;;;;5040324;28;20469;-57
2022/09/17 00:19:14;;;;;;;3.90;0.80;;;12.40;94.30;;;;;;5044501;28;20132;-58
2022/09/17 00:21:40;;;;;;;5.25;0.93;;;12.40;94.30;;;;;;5039489;28;20040;-58
2022/09/17 00:24:06;;;;;;;4.65;0.82;;;12.40;94.20;;;;;;5037971;28;20088;-58
2022/09/17 00:26:33;;;;;;;6.03;0.88;;;12.50;94.20;;;;;;5036506;28;20026;-57
2022/09/17 00:29:00;;;;;;;7.25;0.90;;;12.50;94.20;;;;;;5044879;28;20052;-58
2022/09/17 00:31:27;;;;;;;5.90;1.00;;;12.40;94.20;;;;;;5048818;28;20025;-58
2022/09/17 00:33:52;;;;;;;6.07;0.90;;;12.40;94.20;;;;;;5052496;28;20021;-56
2022/09/17 00:36:19;;;;;;;7.22;0.95;;;12.40;94.20;;;;;;5048696;28;20024;-57
2022/09/17 00:38:49;;;;;;;5.55;1.10;;;12.40;94.20;;;;;;5038965;28;20392;-58
2022/09/17 00:41:14;;;;;;;4.55;0.70;;;12.40;94.30;;;;;;5032890;28;20098;-57
2022/09/17 00:43:43;;;;;;;5.97;0.98;;;12.40;94.30;;;;;;5044179;28;20029;-58
2022/09/17 00:46:33;;;;;;;4.38;1.00;;;12.40;94.40;;;;;;5045865;28;20029;-58
2022/09/17 00:49:28;;;;;;;8.18;0.95;;;12.40;94.40;;;;;;5051811;28;20028;-57
2022/09/17 00:52:04;;;;;;;5.00;0.98;;;12.30;94.40;;;;;;5043606;28;20505;-58
2022/09/17 00:54:30;;;;;;;5.13;0.95;;;12.30;94.40;;;;;;5040809;28;20021;-58
2022/09/17 00:56:56;;;;;;;4.55;0.60;;;12.30;94.50;;;;;;5046433;28;20510;-58
2022/09/17 00:59:23;;;;;;;5.65;0.68;;;12.30;94.50;;;;;;5039848;28;20029;-57
2022/09/17 01:01:49;;;;;;;9.18;1.20;;;12.30;94.50;;;;;;5036588;28;20048;-57
2022/09/17 01:04:17;;;;;;;6.03;1.17;;;12.30;94.60;;;;;;5042866;28;20040;-58
2022/09/17 01:07:00;;;;;;;3.60;0.75;;;12.30;94.60;;;;;;5042252;28;20342;-57
2022/09/17 01:09:58;;;;;;;6.93;0.88;;;12.30;94.60;;;;;;5043541;28;20100;-57
2022/09/17 01:12:54;;;;;;;6.97;1.00;;;12.30;94.60;;;;;;4994398;28;20025;-57
2022/09/17 01:15:37;;;;;;;8.15;1.00;;;12.20;94.70;;;;;;5041141;28;20036;-57
2022/09/17 01:18:21;;;;;;;3.58;0.80;;;12.20;94.90;;;;;;5044891;28;20043;-57
2022/09/17 01:21:29;;;;;;;4.78;0.60;;;12.20;94.90;;;;;;5040141;28;20021;-57
2022/09/17 01:24:21;;;;;;;6.47;1.05;;;12.20;95.00;;;;;;5039410;28;20036;-58
2022/09/17 01:26:49;;;;;;;5.93;1.17;;;12.10;95.10;;;;;;5046457;28;20028;-57
2022/09/17 01:29:36;;;;;;;8.80;0.90;;;12.10;95.20;;;;;;5042708;28;20017;-57
2022/09/17 01:32:11;;;;;;;6.38;1.02;;;12.10;95.30;;;;;;5047005;28;20025;-58
2022/09/17 01:34:43;;;;;;;10.45;1.10;;;12.10;95.40;;;;;;5045432;28;20021;-57
2022/09/17 01:37:18;;;;;;;7.85;0.90;;;12.10;95.50;;;;;;5043436;28;20029;-58
2022/09/17 01:39:57;;;;;;;4.72;0.98;;;12.10;95.60;;;;;;5055558;28;20047;-57
2022/09/17 01:42:48;;;;;;;6.18;0.93;;;12.10;95.60;;;;;;5038295;28;20040;-57
2022/09/17 01:45:36;;;;;;;6.85;0.98;;;12.10;95.60;;;;;;5035563;28;20025;-58
2022/09/17 01:48:24;;;;;;;5.10;0.85;;;12.00;95.70;;;;;;5046895;28;20025;-57
2022/09/17 01:50:52;;;;;;;6.07;0.80;;;12.00;95.80;;;;;;5044077;28;20031;-57
2022/09/17 01:53:23;;;;;;;5.00;0.88;;;12.00;96.00;;;;;;5042459;28;20019;-58
2022/09/17 01:55:53;;;;;;;5.22;0.95;;;12.00;96.00;;;;;;5042547;28;20037;-57
2022/09/17 01:58:30;;;;;;;4.68;0.88;;;12.00;96.10;;;;;;5045643;28;20017;-57
2022/09/17 02:01:02;;;;;;;5.55;1.10;;;12.00;96.10;;;;;;5039556;28;20021;-57
2022/09/17 02:03:48;;;;;;;3.88;0.93;;;11.90;96.10;;;;;;5037073;28;20056;-57
2022/09/17 02:06:22;;;;;;;5.65;0.90;;;11.90;96.00;;;;;;5039547;28;20025;-57
2022/09/17 02:08:51;;;;;;;6.25;0.73;;;11.90;96.10;;;;;;5035474;28;20032;-58
2022/09/17 02:11:18;;;;;;;2.63;0.65;;;11.90;96.20;;;;;;5041155;28;20523;-58
2022/09/17 02:13:47;;;;;;;4.47;0.82;;;11.80;96.20;;;;;;5045941;28;20052;-56
2022/09/17 02:16:24;;;;;;;2.47;0.60;;;11.80;96.20;;;;;;5049665;28;20029;-58
2022/09/17 02:18:53;;;;;;;4.93;0.88;;;11.80;96.10;;;;;;5048525;28;20400;-58
2022/09/17 02:21:32;;;;;;;3.78;0.70;;;11.80;96.20;;;;;;5038233;28;20029;-57
2022/09/17 02:24:13;;;;;;;5.05;0.55;;;11.80;96.20;;;;;;5040949;28;20033;-58
2022/09/17 02:26:44;;;;;;;5.80;0.70;;;11.80;96.20;;;;;;5061860;28;20507;-57
2022/09/17 02:29:28;;;;;;;6.70;1.00;;;11.80;96.30;;;;;;5036986;28;20079;-58
2022/09/17 02:31:54;;;;;;;4.97;0.80;;;11.80;96.30;;;;;;5043909;28;21040;-57
2022/09/17 02:34:21;;;;;;;4.03;0.70;;;11.70;96.30;;;;;;5046527;28;20055;-57
2022/09/17 02:36:46;;;;;;;10.00;0.90;;;11.70;96.30;;;;;;5047762;28;20025;-57
2022/09/17 02:39:12;;;;;;;4.55;0.82;;;11.70;96.30;;;;;;5037840;28;20036;-57
2022/09/17 02:41:57;;;;;;;3.55;0.60;;;11.70;96.30;;;;;;5050397;28;20561;-57
2022/09/17 02:44:41;;;;;;;4.72;0.68;;;11.70;96.40;;;;;;5031296;28;20026;-57
2022/09/17 02:47:41;;;;;;;6.78;0.93;;;11.80;96.40;;;;;;5038833;28;20029;-58
2022/09/17 02:50:49;;;;;;;4.07;0.93;;;11.70;96.40;;;;;;5047715;28;20033;-57
2022/09/17 02:53:56;;;;;;;5.70;0.70;;;11.70;96.40;;;;;;5032056;28;20060;-57
2022/09/17 02:56:55;;;;;;;3.80;0.75;;;11.70;96.50;;;;;;5037524;28;20488;-57
2022/09/17 02:59:40;;;;;;;6.22;0.90;;;11.70;96.50;;;;;;5040493;28;20025;-56
2022/09/17 03:02:23;;;;;;;4.25;0.60;;;11.70;96.60;;;;;;5061304;28;20400;-57
2022/09/17 03:04:49;;;;;;;6.20;0.82;;;11.70;96.50;;;;;;5034256;28;20025;-56
2022/09/17 03:07:17;;;;;;;6.30;0.70;;;11.60;96.50;;;;;;5054881;28;20048;-57
2022/09/17 03:09:43;;;;;;;4.00;0.63;;;11.70;96.50;;;;;;5063279;28;20734;-57
2022/09/17 03:12:10;;;;;;;5.22;0.70;;;11.70;96.50;;;;;;5039152;28;20025;-57
2022/09/17 03:14:36;;;;;;;5.57;0.90;;;11.60;96.40;;;;;;5042775;28;20489;-57
2022/09/17 03:17:02;;;;;;;5.72;1.02;;;11.60;96.40;;;;;;5053721;28;20035;-57
2022/09/17 03:19:27;;;;;;;7.18;1.90;;;11.60;96.40;;;;;;5042091;28;20500;-55
2022/09/17 03:21:53;;;;;;;5.13;0.50;;;11.60;96.40;;;;;;5043356;28;20029;-57
2022/09/17 03:24:21;;;;;;;3.42;1.08;;;11.60;96.50;;;;;;5041676;28;20055;-57
2022/09/17 03:26:48;;;;;;;3.40;0.60;;;11.60;96.50;;;;;;5037849;28;20033;-57
2022/09/17 03:29:14;;;;;;;4.25;0.85;;;11.50;96.50;;;;;;5047833;28;20366;-57
2022/09/17 03:31:39;;;;;;;4.90;1.02;;;11.50;96.50;;;;;;5044444;28;20047;-57
2022/09/17 03:34:08;;;;;;;5.00;1.10;;;11.50;96.60;;;;;;5037766;28;20037;-56
2022/09/17 03:36:34;;;;;;;4.78;0.85;;;11.50;96.60;;;;;;5047563;28;20025;-58
2022/09/17 03:39:00;;;;;;;5.03;0.80;;;11.50;96.60;;;;;;5041340;28;20033;-58
2022/09/17 03:41:26;;;;;;;6.57;0.80;;;11.50;96.60;;;;;;5046657;28;20049;-58
2022/09/17 03:43:52;;;;;;;4.60;0.70;;;11.50;96.70;;;;;;5041945;28;20531;-57
2022/09/17 03:46:18;;;;;;;4.82;0.60;;;11.50;96.70;;;;;;5048116;28;20108;-57
2022/09/17 03:48:44;;;;;;;10.27;2.00;;;11.50;96.70;;;;;;5043234;28;20100;-58
2022/09/17 03:51:10;;;;;;;5.20;0.80;;;11.50;96.70;;;;;;5041454;28;20022;-57
2022/09/17 03:53:36;;;;;;;5.95;0.63;;;11.50;96.70;;;;;;5037865;28;20032;-57
2022/09/17 03:56:04;;;;;;;2.22;0.40;;;11.50;96.70;;;;;;5059041;28;20032;-57
2022/09/17 03:58:30;;;;;;;5.18;0.77;;;11.50;96.70;;;;;;5046630;28;20051;-57
2022/09/17 04:00:56;;;;;;;2.65;0.50;;;11.50;96.70;;;;;;5058413;28;20025;-57
2022/09/17 04:03:26;;;;;;;3.67;0.55;;;11.50;96.70;;;;;;5035847;28;20025;-57
2022/09/17 04:05:53;;;;;;;5.55;0.85;;;11.40;96.70;;;;;;5055437;28;20477;-57
2022/09/17 04:08:18;;;;;;;5.57;0.80;;;11.40;96.70;;;;;;5037140;28;20025;-57
2022/09/17 04:10:45;;;;;;;2.78;0.70;;;11.40;96.70;;;;;;5039521;28;20018;-57
2022/09/17 04:13:11;;;;;;;6.85;0.63;;;11.40;96.70;;;;;;5035729;28;20029;-57
2022/09/17 04:15:37;;;;;;;5.03;0.60;;;11.40;96.70;;;;;;5047108;28;20035;-57
2022/09/17 04:18:03;;;;;;;5.00;0.70;;;11.40;96.70;;;;;;5039664;28;20025;-58
2022/09/17 04:20:28;;;;;;;4.63;0.90;;;11.40;96.80;;;;;;5042032;28;20029;-57
2022/09/17 04:23:02;;;;;;;4.75;0.52;;;11.40;96.80;;;;;;5039538;28;20025;-58
2022/09/17 04:25:27;;;;;;;3.63;0.70;;;11.40;96.80;;;;;;5043562;28;20034;-57
2022/09/17 04:27:53;;;;;;;5.72;0.75;;;11.40;96.90;;;;;;5035162;28;20017;-57
2022/09/17 04:30:18;;;;;;;2.42;0.60;;;11.30;96.90;;;;;;5037174;28;20496;-56
2022/09/17 04:32:45;;;;;;;6.85;0.98;;;11.30;96.90;;;;;;5040975;28;20393;-58
2022/09/17 04:35:11;;;;;;;4.00;1.15;;;11.30;96.90;;;;;;5054747;28;20086;-57
2022/09/17 04:37:36;;;;;;;8.13;1.00;;;11.30;97.00;;;;;;5038603;28;20036;-57
2022/09/17 04:40:03;;;;;;;6.53;0.70;;;11.20;97.00;;;;;;5046435;28;20021;-56
2022/09/17 04:42:28;;;;;;;4.45;1.00;;;11.30;97.10;;;;;;5039461;28;20022;-57
2022/09/17 04:44:54;;;;;;;5.28;0.70;;;11.20;97.10;;;;;;5047646;28;20047;-57
2022/09/17 04:47:19;;;;;;;5.72;0.82;;;11.20;97.20;;;;;;5047042;28;20025;-57
2022/09/17 04:49:45;;;;;;;4.47;0.90;;;11.20;97.20;;;;;;5035266;28;20018;-57
2022/09/17 04:52:10;;;;;;;4.20;0.50;;;11.20;97.30;;;;;;5049500;28;20059;-58
2022/09/17 04:54:36;;;;;;;5.95;0.80;;;11.20;97.30;;;;;;5052069;28;20120;-57
2022/09/17 04:57:02;;;;;;;2.70;0.63;;;11.20;97.40;;;;;;5052155;28;20021;-57
2022/09/17 04:59:27;;;;;;;3.58;0.70;;;11.20;97.70;;;;;;5051741;28;20028;-57
2022/09/17 05:01:53;;;;;;;3.38;0.70;;;11.20;97.40;;;;;;5051623;28;20447;-58
2022/09/17 05:04:19;;;;;;;5.60;0.93;;;11.20;97.40;;;;;;5057090;28;20494;-57
2022/09/17 05:06:45;;;;;;;4.85;0.77;;;11.20;97.40;;;;;;5050668;28;20025;-58
2022/09/17 05:09:10;;;;;;;4.80;0.93;;;11.20;97.40;;;;;;5051992;28;20519;-58
2022/09/17 05:11:36;;;;;;;4.68;0.68;;;11.20;97.40;;;;;;5050766;28;20048;-58
2022/09/17 05:14:01;;;;;;;4.78;0.70;;;11.20;97.30;;;;;;5050689;28;20021;-58
2022/09/17 05:16:27;;;;;;;5.65;0.80;;;11.20;97.30;;;;;;5038903;28;20108;-57
2022/09/17 05:19:03;;;;;;;6.47;0.90;;;11.20;97.30;;;;;;5051877;28;20097;-58
2022/09/17 05:21:28;;;;;;;8.40;1.20;;;11.20;97.30;;;;;;5050233;28;20025;-57
2022/09/17 05:23:54;;;;;;;2.88;0.82;;;11.10;97.30;;;;;;5050526;28;20036;-57
2022/09/17 05:26:19;;;;;;;5.60;0.68;;;11.10;97.20;;;;;;5050599;28;20028;-57
2022/09/17 05:28:45;;;;;;;3.40;0.70;;;11.10;97.20;;;;;;5051591;28;20028;-57
2022/09/17 05:31:10;;;;;;;3.97;0.60;;;11.10;97.20;;;;;;5049857;28;20017;-57
2022/09/17 05:33:36;;;;;;;4.53;1.00;;;11.10;97.20;;;;;;5045583;28;20025;-57
2022/09/17 05:36:01;;;;;;;2.90;0.40;;;11.10;97.20;;;;;;5046180;28;20021;-57
2022/09/17 05:38:27;;;;;;;3.10;0.60;;;11.10;97.10;;;;;;5048129;28;20032;-58
2022/09/17 05:40:53;;;;;;;3.42;0.60;;;11.20;97.10;;;;;;5044896;28;20128;-57
2022/09/17 05:43:18;;;;;;;3.53;0.60;;;11.10;97.00;;;;;;5052194;28;20435;-57
2022/09/17 05:45:44;;;;;;;4.68;0.70;;;11.20;97.00;;;;;;5053100;28;20021;-57
2022/09/17 05:48:13;;;;;;;6.68;0.70;;;11.20;97.00;;;;;;5052532;28;20033;-57
2022/09/17 05:50:40;;;;;;;6.88;0.80;;;11.20;97.00;;;;;;5046781;28;20481;-58
2022/09/17 05:53:12;;;;;;;3.28;0.50;;;11.20;97.00;;;;;;5041997;28;20029;-57
2022/09/17 05:55:38;;;;;;;5.63;1.25;;;11.20;96.90;;;;;;5053669;28;20024;-58
2022/09/17 05:58:15;;;;;;;8.68;0.95;;;11.20;96.90;;;;;;5055305;28;20066;-57
2022/09/17 06:00:41;;;;;;;4.43;0.80;;;11.30;96.90;;;;;;5047162;28;20013;-57
2022/09/17 06:03:09;;;;;;;2.80;0.75;;;11.30;96.90;;;;;;5042264;28;20076;-57
2022/09/17 06:05:35;;;;;;;4.88;0.90;;;11.30;96.90;;;;;;5052818;28;20542;-58
2022/09/17 06:08:01;;;;;;;4.05;0.57;;;11.30;96.90;;;;;;5047508;28;20021;-57
2022/09/17 06:10:26;;;;;;;4.38;0.80;;;11.30;96.90;;;;;;5043633;28;20018;-58
2022/09/17 06:12:57;;;;;;;4.65;0.80;;;11.30;97.00;;;;;;5053780;28;20105;-57
2022/09/17 06:15:22;;;;;;;7.63;0.95;;;11.30;97.00;;;;;;5046323;28;20108;-57
2022/09/17 06:17:57;;;;;;;5.00;1.27;;;11.40;97.00;;;;;;5054196;28;20100;-57
2022/09/17 06:20:22;;;;;;;5.53;0.60;;;11.40;97.00;;;;;;5042207;28;20501;-57
2022/09/17 06:22:48;;;;;;;4.28;0.70;;;11.40;97.00;;;;;;5053000;28;20036;-56
2022/09/17 06:25:14;;;;;;;4.43;0.80;;;11.50;97.00;;;;;;5047101;28;20021;-57
2022/09/17 06:27:39;;;;;;;3.70;0.60;;;11.50;96.90;;;;;;5052517;28;20051;-57
2022/09/17 06:30:05;;;;;;;5.28;1.00;;;11.60;96.80;;;;;;5054351;28;20076;-57
2022/09/17 06:32:31;;;;;;;3.58;0.50;;;11.60;96.80;;;;;;5054121;28;20021;-57
2022/09/17 06:34:57;;;;;;;4.60;0.60;;;11.60;96.80;;;;;;5052025;28;20024;-56
2022/09/17 06:37:30;;;;;;;7.45;1.48;;;11.70;96.80;;;;;;5050880;28;20033;-57
2022/09/17 06:39:58;;;;;;;2.65;0.60;;;11.80;96.70;;;;;;5046400;28;20392;-57
2022/09/17 06:42:24;;;;;;;6.43;0.70;;;11.80;96.70;;;;;;5049761;28;20024;-57
2022/09/17 06:44:50;;;;;;;4.78;0.65;;;11.90;96.60;;;;;;5049660;28;20075;-57
2022/09/17 06:47:15;;;;;;;3.45;0.60;;;11.90;96.50;;;;;;5050444;28;20486;-57
2022/09/17 06:49:41;;;;;;;6.53;0.70;;;11.90;96.40;;;;;;5049857;28;20024;-57
2022/09/17 06:52:06;;;;;;;3.10;0.50;;;11.90;96.30;;;;;;5048619;28;20029;-58
2022/09/17 06:54:32;;;;;;;2.58;0.50;;;11.90;96.30;;;;;;5048627;28;20021;-57
2022/09/17 06:56:58;;;;;;;3.17;0.50;;;12.00;96.30;;;;;;5051927;28;20420;-57
2022/09/17 06:59:24;;;;;;;3.20;0.68;;;12.00;96.20;;;;;;5052555;28;20427;-58
2022/09/17 07:01:50;;;;;;;2.10;0.50;;;12.00;96.20;;;;;;5039091;28;20080;-57
2022/09/17 07:04:18;;;;;;;3.55;0.57;;;12.00;96.10;;;;;;5045010;28;20120;-57
2022/09/17 07:06:44;;;;;;;2.25;0.40;;;12.10;96.10;;;;;;5045495;28;20469;-57
2022/09/17 07:09:10;;;;;;;2.75;0.40;;;12.10;96.10;;;;;;5049889;28;20112;-58
2022/09/17 07:11:37;;;;;;;4.18;0.50;;;12.10;96.00;;;;;;5051390;28;20020;-57
2022/09/17 07:14:03;;;;;;;4.63;0.50;;;12.20;96.00;;;;;;5052648;28;20063;-57
2022/09/17 07:16:34;;;;;;;2.05;0.30;;;12.20;96.00;;;;;;5052483;28;20503;-57
2022/09/17 07:19:00;;;;;;;2.78;0.75;;;12.20;95.90;;;;;;5052399;28;20024;-57
2022/09/17 07:21:26;;;;;;;3.50;0.80;;;12.30;95.90;;;;;;5048253;28;20111;-57
2022/09/17 07:23:51;;;;;;;4.78;0.73;;;12.30;95.90;;;;;;5051246;28;20109;-57
2022/09/17 07:26:17;;;;;;;5.10;1.30;;;12.30;95.80;;;;;;5051846;28;20025;-58
2022/09/17 07:28:43;;;;;;;3.55;0.50;;;12.40;95.80;;;;;;5041386;28;20022;-58
2022/09/17 07:31:09;;;;;;;3.92;0.50;;;12.40;95.70;;;;;;5044929;28;20021;-58
2022/09/17 07:33:36;;;;;;;3.85;0.50;;;12.50;95.70;;;;;;5051970;28;20028;-57
2022/09/17 07:36:09;;;;;;;1.45;0.40;;;12.60;95.60;;;;;;5052435;28;20025;-58
2022/09/17 07:38:34;;;;;;;3.47;0.98;;;12.70;95.50;;;;;;5046314;28;20067;-57
2022/09/17 07:41:01;;;;;;;2.45;0.52;;;12.70;95.40;;;;;;5048665;28;20080;-56
2022/09/17 07:43:28;;;;;;;3.28;0.40;;;12.80;95.30;;;;;;5050411;28;20021;-58
2022/09/17 07:45:56;;;;;;;5.47;0.70;;;12.80;95.20;;;;;;5049753;28;20025;-58
2022/09/17 07:48:23;;;;;;;2.60;0.47;;;12.90;95.00;;;;;;5039501;28;20037;-57
2022/09/17 07:50:48;;;;;;;3.78;0.40;;;13.00;94.50;;;;;;5047976;28;20020;-57
2022/09/17 07:53:14;;;;;;;3.00;0.50;;;13.10;94.40;;;;;;5045686;28;20025;-57
2022/09/17 07:55:40;;;;;;;4.63;0.50;;;13.30;94.30;;;;;;5043129;28;20025;-57
2022/09/17 07:58:06;;;;;;;5.80;0.60;;;13.50;94.20;;;;;;5049070;28;20017;-57
2022/09/17 08:00:31;;;;;;;3.28;0.40;;;13.50;93.80;;;;;;5051732;28;20388;-58
2022/09/17 08:02:57;;;;;;;4.90;0.47;;;13.50;93.60;;;;;;5051540;28;20207;-57
2022/09/17 08:05:24;;;;;;;3.90;0.50;;;13.50;93.60;;;;;;5048480;28;20075;-56
2022/09/17 08:07:54;;;;;;;1.42;0.43;;;13.60;93.50;;;;;;5050905;28;20033;-58
2022/09/17 08:10:21;;;;;;;2.03;0.45;;;13.60;93.50;;;;;;5046163;28;20571;-57
2022/09/17 08:12:48;;;;;;;3.08;0.82;;;13.60;93.30;;;;;;5049298;28;20041;-57
2022/09/17 08:15:15;;;;;;;5.53;0.75;;;13.60;93.20;;;;;;5051457;28;20028;-54
2022/09/17 08:17:45;;;;;;;3.88;0.60;;;13.60;93.20;;;;;;5049400;28;20069;-56
2022/09/17 08:20:11;;;;;;;;;;;13.70;93.20;;;;;;5050829;28;20036;-57
2022/09/17 08:22:37;;;;;;;3.92;0.98;;;13.60;93.30;;;;;;5048129;28;19920;-58
2022/09/17 08:25:04;;;;;;;3.40;0.40;;;13.60;93.30;;;;;;5049646;28;20029;-59
2022/09/17 08:27:30;;;;;;;1.70;0.45;;;13.70;93.10;;;;;;5048567;28;20039;-58
2022/09/17 08:29:56;;;;;;;3.67;0.50;;;13.70;93.10;;;;;;5050009;28;20021;-57
2022/09/17 08:32:22;;;;;;;3.70;1.02;;;13.80;93.50;;;;;;5048145;28;20021;-57
2022/09/17 08:34:48;;;;;;;6.40;0.68;;;13.80;93.10;;;;;;5049745;28;20016;-57
2022/09/17 08:37:13;;;;;;;4.80;0.52;;;13.90;92.90;;;;;;5049669;28;20044;-58
2022/09/17 08:39:39;;;;;;;4.10;0.55;;;13.90;92.80;;;;;;5050970;28;20032;-57
2022/09/17 08:42:23;;;;;;;4.90;0.60;;;13.90;92.80;;;;;;5050871;28;20076;-58
2022/09/17 08:44:49;;;;;;;2.15;0.50;;;14.00;92.80;;;;;;5049687;28;20384;-58
2022/09/17 08:47:29;;;;;;;2.00;0.28;;;14.00;92.80;;;;;;5047888;28;20013;-58
2022/09/17 08:49:58;;;;;;;3.03;0.30;;;14.10;92.50;;;;;;5050723;28;20522;-57
2022/09/17 08:52:46;;;;;;;2.85;0.43;;;14.20;92.20;;;;;;5049033;28;20104;-57
2022/09/17 08:55:35;;;;;;;2.63;0.52;;;14.30;91.90;;;;;;5035126;28;20025;-57
2022/09/17 08:58:20;;;;;;;2.28;0.40;;;14.40;91.50;;;;;;5050980;28;20021;-57
2022/09/17 09:01:08;;;;;;;2.22;0.30;;;14.40;91.00;;;;;;5047001;28;20097;-57
2022/09/17 09:03:36;;;;;;;3.80;0.38;;;14.50;90.80;;;;;;5042142;28;20028;-57
2022/09/17 09:06:02;;;;;;;3.97;0.40;;;14.50;90.50;;;;;;5051077;28;20029;-57
2022/09/17 09:08:34;;;;;;;2.97;0.40;;;14.60;90.30;;;;;;5047252;28;20028;-57
2022/09/17 09:11:12;;;;;;;2.45;0.47;;;14.80;90.20;;;;;;5058762;28;20448;-57
2022/09/17 09:13:47;;;;;;;2.90;0.77;;;15.00;89.90;;;;;;5052102;28;20388;-57
2022/09/17 09:16:17;;;;;;;1.92;0.45;;;15.10;89.10;;;;;;5050123;28;20033;-58
2022/09/17 09:18:43;;;;;;;2.03;0.32;;;15.20;88.60;;;;;;5049079;28;20107;-58
2022/09/17 09:21:11;;;;;;;3.22;1.02;;;15.30;88.10;;;;;;5052924;28;20101;-57
2022/09/17 09:24:04;;;;;;;4.32;0.38;;;15.40;88.10;;;;;;5054357;28;20040;-58
2022/09/17 09:26:48;;;;;;;2.50;0.32;;;15.60;87.50;;;;;;5047492;28;20104;-57
2022/09/17 09:29:29;;;;;;;2.78;0.40;;;15.70;87.20;;;;;;5052086;28;20481;-58
2022/09/17 09:32:16;;;;;;;1.63;0.28;;;15.80;87.20;;;;;;5051866;28;20024;-58
2022/09/17 09:34:42;;;;;;;3.00;0.30;;;15.70;86.70;;;;;;5053193;28;20047;-58
2022/09/17 09:37:33;;;;;;;2.95;0.43;;;15.50;86.30;;;;;;5053106;28;20057;-58
2022/09/17 09:40:40;;;;;;;4.35;0.50;;;15.40;85.50;;;;;;5043560;28;20036;-57
2022/09/17 09:43:21;;;;;;;3.20;0.40;;;15.00;86.90;;;;;;5028745;28;20506;-58
2022/09/17 09:46:05;;;;;;;2.95;0.50;;;14.70;89.00;;;;;;5055676;28;20060;-58
2022/09/17 09:49:06;;;;;;;3.67;0.63;;;14.50;90.20;;;;;;5055436;28;20384;-58
2022/09/17 09:52:00;;;;;;;2.00;0.30;;;14.60;90.70;;;;;;5049567;28;20021;-58
2022/09/17 09:54:35;;;;;;;2.85;0.30;;;14.60;91.00;;;;;;5053329;28;20036;-57
2022/09/17 09:57:08;;;;;;;1.23;0.40;;;14.60;91.50;;;;;;5054094;28;20033;-58
2022/09/17 09:59:35;;;;;;;1.10;0.30;;;14.80;91.70;;;;;;5050649;28;20103;-58
2022/09/17 10:02:14;;;;;;;2.28;0.30;;;15.00;91.70;;;;;;5054004;28;20040;-58
2022/09/17 10:04:40;;;;;;;2.90;0.30;;;15.20;91.70;;;;;;5053861;28;20021;-58
2022/09/17 10:07:08;;;;;;;2.17;0.40;;;15.30;91.60;;;;;;5052378;28;20037;-58
2022/09/17 10:09:36;;;;;;;2.05;0.38;;;15.50;91.50;;;;;;5054149;28;20024;-58
2022/09/17 10:12:04;;;;;;;1.45;0.30;;;15.60;91.50;;;;;;5052379;28;20024;-58
2022/09/17 10:14:41;;;;;;;2.05;0.40;;;15.60;91.40;;;;;;5051150;28;20017;-58
2022/09/17 10:17:17;;;;;;;2.85;0.30;;;15.70;91.40;;;;;;5053118;28;20099;-58
2022/09/17 10:20:12;;;;;;;1.35;0.30;;;15.90;91.30;;;;;;5050711;28;20017;-58
2022/09/17 10:22:41;;;;;;;2.00;0.40;;;16.10;91.20;;;;;;5037221;28;20087;-58
2022/09/17 10:25:33;;;;;;;5.80;1.20;;;16.30;91.00;;;;;;5041545;28;20032;-58
2022/09/17 10:28:25;;;;;;;3.10;1.00;;;16.60;90.30;;;;;;5037496;28;20264;-57
2022/09/17 10:31:03;;;;;;;2.33;0.30;;;16.80;89.00;;;;;;5044468;28;20021;-57
2022/09/17 10:33:30;;;;;;;3.33;1.10;;;17.10;87.30;;;;;;5050724;28;20025;-58
2022/09/17 10:36:01;;;;;;;2.58;0.40;;;17.30;86.20;;;;;;5042002;28;20091;-57
2022/09/17 10:38:31;;;;;;;2.45;0.47;;;17.70;84.80;;;;;;5054330;28;20035;-58
2022/09/17 10:41:24;;;;;;;1.30;0.25;;;18.20;83.60;;;;;;5061719;28;20044;-59
2022/09/17 10:43:50;;;;;;;1.83;0.40;;;18.90;82.50;;;;;;5050406;28;20125;-58
2022/09/17 10:46:29;;;;;;;2.08;0.40;;;19.10;79.00;;;;;;5054767;28;20025;-58
2022/09/17 10:49:13;;;;;;;4.10;0.52;;;19.10;78.60;;;;;;5077908;28;20029;-57
2022/09/17 10:51:39;;;;;;;1.10;0.40;;;18.90;78.70;;;;;;5055199;28;20031;-58
2022/09/17 10:54:34;;;;;;;2.28;0.70;;;18.70;79.60;;;;;;5062710;28;20111;-58
2022/09/17 10:57:00;;;;;;;1.67;0.30;;;18.60;79.30;;;;;;5057096;28;20039;-58
2022/09/17 10:59:56;;;;;;;1.73;0.30;;;19.40;80.00;;;;;;5054073;28;20453;-58
2022/09/17 11:02:33;;;;;;;1.30;0.30;;;21.70;77.80;;;;;;5054277;28;20028;-58
2022/09/17 11:05:35;;;;;;;1.75;0.50;;;24.50;73.80;;;;;;5058231;28;20042;-59
2022/09/17 11:08:15;;;;;;;1.63;0.30;;;27.70;66.70;;;;;;5032143;28;20048;-58
2022/09/17 11:10:56;;;;;;;1.92;0.63;;;30.60;58.70;;;;;;5057232;28;20035;-59
2022/09/17 11:13:56;;;;;;;1.70;0.50;;;32.40;53.50;;;;;;5049200;28;20085;-59
2022/09/17 11:16:45;;;;;;;1.60;0.50;;;31.40;50.80;;;;;;5051998;28;20038;-60
2022/09/17 11:19:36;;;;;;;1.67;0.40;;;30.30;52.00;;;;;;5055585;28;20037;-59
2022/09/17 11:22:15;;;;;;;0.93;0.40;;;32.00;50.40;;;;;;5064597;28;20393;-59
2022/09/17 11:24:55;;;;;;;2.15;0.40;;;32.60;47.10;;;;;;5048860;28;20017;-59
2022/09/17 11:27:31;;;;;;;1.38;0.30;;;33.10;46.20;;;;;;5066792;28;20055;-59
2022/09/17 11:30:46;;;;;;;2.50;0.50;;;32.00;45.30;;;;;;5049554;28;20020;-59
2022/09/17 11:33:55;;;;;;;3.05;0.63;;;30.30;44.90;;;;;;4990993;28;20081;-59
2022/09/17 11:36:26;;;;;;;2.08;0.40;;;29.00;45.80;;;;;;5007129;28;20047;-59
2022/09/17 11:38:54;;;;;;;1.95;0.50;;;28.10;46.50;;;;;;5046045;28;20033;-59
2022/09/17 11:41:25;;;;;;;2.25;0.50;;;29.30;46.40;;;;;;5050643;28;20082;-59
2022/09/17 11:44:24;;;;;;;1.85;0.50;;;31.70;44.70;;;;;;5051545;28;20021;-59
2022/09/17 11:47:09;;;;;;;2.97;0.60;;;34.70;39.50;;;;;;5048204;28;20027;-59
2022/09/17 11:49:42;;;;;;;2.97;0.85;;;36.90;37.60;;;;;;5048650;28;20032;-59
2022/09/17 11:52:20;;;;;;;2.85;0.90;;;38.30;34.90;;;;;;5051961;28;20099;-59
2022/09/17 11:55:17;;;;;;;2.75;0.70;;;39.30;33.80;;;;;;5051700;28;20580;-59
2022/09/17 11:57:44;;;;;;;2.92;0.70;;;40.20;32.80;;;;;;5050589;28;20033;-59
2022/09/17 12:00:17;;;;;;;4.20;0.80;;;40.70;32.20;;;;;;5051968;28;20382;-59
2022/09/17 12:03:07;;;;;;;2.85;0.60;;;41.30;32.10;;;;;;5049760;28;20029;-59
2022/09/17 12:05:47;;;;;;;2.22;0.70;;;41.00;31.50;;;;;;5048984;28;20029;-59
2022/09/17 12:08:26;;;;;;;4.20;0.80;;;38.70;31.80;;;;;;5049715;28;20503;-59
2022/09/17 12:11:14;;;;;;;3.88;0.90;;;36.10;33.10;;;;;;5047375;28;20532;-59
2022/09/17 12:13:45;;;;;;;;;;;33.60;34.60;;;;;;5047700;28;20056;-59
2022/09/17 12:16:20;;;;;;;4.95;1.10;;;31.30;36.70;;;;;;5046272;28;19959;-59
2022/09/17 12:18:52;;;;;;;2.65;0.70;;;29.60;40.00;;;;;;5049237;28;20037;-59
2022/09/17 12:21:30;;;;;;;3.05;0.52;;;28.40;41.70;;;;;;5046304;28;20017;-58
2022/09/17 12:24:25;;;;;;;3.15;0.50;;;27.50;43.10;;;;;;5048080;28;20020;-59
2022/09/17 12:26:56;;;;;;;2.33;0.55;;;26.70;44.30;;;;;;5047343;28;20407;-58
2022/09/17 12:29:29;;;;;;;1.60;0.52;;;26.20;45.50;;;;;;5047240;28;20025;-59
2022/09/17 12:32:42;;;;;;;2.88;0.73;;;27.20;45.70;;;;;;5046086;28;20053;-58
2022/09/17 12:35:38;;;;;;;2.35;0.57;;;30.20;43.50;;;;;;5044387;28;20485;-59
2022/09/17 12:38:16;;;;;;;3.05;0.80;;;33.20;40.60;;;;;;5046380;28;20036;-59
2022/09/17 12:41:00;;;;;;;1.48;0.50;;;33.90;38.10;;;;;;5044368;28;20040;-59
2022/09/17 12:43:44;;;;;;;3.58;0.90;;;32.60;38.80;;;;;;5045779;28;20083;-58
2022/09/17 12:46:32;;;;;;;4.13;0.73;;;31.00;39.10;;;;;;5062037;28;20035;-59
2022/09/17 12:49:28;;;;;;;2.72;0.70;;;29.50;40.30;;;;;;5034929;28;20052;-59
2022/09/17 12:51:58;;;;;;;3.95;0.70;;;29.20;42.10;;;;;;5063860;28;20078;-59
2022/09/17 12:54:54;;;;;;;2.22;0.60;;;29.80;40.70;;;;;;5044257;28;20021;-59
2022/09/17 12:57:41;;;;;;;2.10;0.57;;;29.40;41.00;;;;;;5048317;28;20025;-58
2022/09/17 13:00:12;;;;;;;2.97;0.52;;;28.40;40.10;;;;;;5049035;28;20055;-58
2022/09/17 13:02:59;;;;;;;3.97;0.80;;;27.40;41.30;;;;;;5048250;28;20094;-58
2022/09/17 13:05:54;;;;;;;3.00;0.70;;;27.00;42.40;;;;;;5047518;28;20044;-58
2022/09/17 13:08:52;;;;;;;3.30;0.60;;;27.40;42.90;;;;;;5048023;28;20493;-59
2022/09/17 13:11:55;;;;;;;2.35;0.55;;;27.30;42.00;;;;;;5046841;28;20039;-59
2022/09/17 13:15:05;;;;;;;1.20;0.40;;;26.20;43.30;;;;;;5047360;28;20086;-58
2022/09/17 13:17:57;;;;;;;1.70;0.40;;;26.40;44.50;;;;;;5046128;28;20029;-59
2022/09/17 13:20:34;;;;;;;3.90;1.15;;;26.70;43.90;;;;;;5047860;28;20036;-59
2022/09/17 13:23:00;;;;;;;4.85;0.68;;;26.50;43.30;;;;;;5046913;28;20056;-58